Time;durP1;ratioP1;P1;durP2;ratioP2;P2;SDS_P1;SDS_P2;PMS_P1;PMS_P2;Temp;Humidity;BMP_temperature;BMP_pressure;BME280_temperature;BME280_humidity;BME280_pressure;Samples;Min_cycle;Max_cycle;Signal;HPM_P1;HPM_P2
2022/06/01 00:00:39;;;;;;;6.90;3.57;;;;;;;;;;5020951;28;20206;-76
2022/06/01 00:03:06;;;;;;;6.23;3.60;;;;;;;;;;5019344;28;20204;-75
2022/06/01 00:05:33;;;;;;;6.77;3.47;;;;;;;;;;5022564;28;20207;-75
2022/06/01 00:08:00;;;;;;;5.13;3.70;;;;;;;;;;5024134;28;20560;-75
2022/06/01 00:10:28;;;;;;;6.47;3.90;;;;;;;;;;5024790;28;20294;-75
2022/06/01 00:12:55;;;;;;;4.73;3.00;;;;;;;;;;5026489;28;20670;-75
2022/06/01 00:15:24;;;;;;;10.37;3.30;;;;;;;;;;5025220;28;20657;-75
2022/06/01 00:17:52;;;;;;;6.10;3.57;;;;;;;;;;5026671;28;20312;-75
2022/06/01 00:20:19;;;;;;;5.67;3.77;;;;;;;;;;5021439;28;20627;-75
2022/06/01 00:22:46;;;;;;;5.50;3.27;;;;;;;;;;5023348;28;20291;-75
2022/06/01 00:25:15;;;;;;;4.23;3.00;;;;;;;;;;5027296;28;20228;-75
2022/06/01 00:27:42;;;;;;;10.57;3.60;;;;;;;;;;5027573;28;20207;-76
2022/06/01 00:30:11;;;;;;;6.13;3.40;;;;;;;;;;5023646;28;20222;-76
2022/06/01 00:32:39;;;;;;;6.63;3.87;;;;;;;;;;5024144;28;20203;-76
2022/06/01 00:35:08;;;;;;;6.63;3.63;;;;;;;;;;5028626;28;20230;-76
2022/06/01 00:37:35;;;;;;;8.27;3.80;;;;;;;;;;5019694;28;20207;-76
2022/06/01 00:40:02;;;;;;;5.43;3.60;;;;;;;;;;5022539;28;20294;-76
2022/06/01 00:42:30;;;;;;;6.77;3.13;;;;;;;;;;5024343;28;20204;-76
2022/06/01 00:44:57;;;;;;;8.23;3.70;;;;;;;;;;5025668;28;20582;-76
2022/06/01 00:47:25;;;;;;;4.47;3.10;;;;;;;;;;5022307;28;21900;-77
2022/06/01 00:49:56;;;;;;;11.20;3.60;;;;;;;;;;5024477;28;20286;-77
2022/06/01 00:52:36;;;;;;;6.80;3.93;;;;;;;;;;5021431;28;20471;-76
2022/06/01 00:55:05;;;;;;;5.37;3.50;;;;;;;;;;5026454;28;20230;-76
2022/06/01 00:57:33;;;;;;;7.87;3.47;;;;;;;;;;5023602;28;20196;-76
2022/06/01 01:00:01;;;;;;;4.77;3.33;;;;;;;;;;5024211;28;20302;-76
2022/06/01 01:02:30;;;;;;;5.53;3.50;;;;;;;;;;5023131;28;20219;-77
2022/06/01 01:05:00;;;;;;;5.83;3.80;;;;;;;;;;5026061;28;20217;-76
2022/06/01 01:07:28;;;;;;;6.03;3.13;;;;;;;;;;5022388;28;20210;-76
2022/06/01 01:09:55;;;;;;;6.53;3.40;;;;;;;;;;5024760;28;20208;-76
2022/06/01 01:12:22;;;;;;;5.47;3.50;;;;;;;;;;5023037;28;20581;-77
2022/06/01 01:14:49;;;;;;;5.40;3.50;;;;;;;;;;5020128;28;20228;-76
2022/06/01 01:17:16;;;;;;;4.77;3.20;;;;;;;;;;5022896;28;20298;-77
2022/06/01 01:19:46;;;;;;;5.97;3.70;;;;;;;;;;5022828;28;20224;-77
2022/06/01 01:22:23;;;;;;;4.30;3.37;;;;;;;;;;5020022;28;20716;-77
2022/06/01 01:25:05;;;;;;;5.53;3.60;;;;;;;;;;5022157;28;20245;-77
2022/06/01 01:27:34;;;;;;;6.57;4.07;;;;;;;;;;5023056;28;20290;-77
2022/06/01 01:30:01;;;;;;;9.33;4.37;;;;;;;;;;5023354;28;20224;-76
2022/06/01 01:32:28;;;;;;;9.17;4.90;;;;;;;;;;5020821;28;20294;-77
2022/06/01 01:34:55;;;;;;;8.97;4.77;;;;;;;;;;5022606;28;20615;-77
2022/06/01 01:37:24;;;;;;;11.17;4.57;;;;;;;;;;5030234;28;20208;-77
2022/06/01 01:39:53;;;;;;;8.70;4.67;;;;;;;;;;5021846;28;20216;-77
2022/06/01 01:42:20;;;;;;;6.77;4.90;;;;;;;;;;5021792;28;20207;-77
2022/06/01 01:44:53;;;;;;;7.70;4.57;;;;;;;;;;5026198;28;20216;-77
2022/06/01 01:47:21;;;;;;;8.77;5.00;;;;;;;;;;5022304;28;20204;-77
2022/06/01 01:49:49;;;;;;;12.53;4.60;;;;;;;;;;5029166;28;20219;-76
2022/06/01 01:52:17;;;;;;;7.40;4.67;;;;;;;;;;5028227;28;20210;-76
2022/06/01 01:54:49;;;;;;;10.20;5.17;;;;;;;;;;5030831;28;20709;-76
2022/06/01 01:57:22;;;;;;;11.63;5.37;;;;;;;;;;5024576;28;20670;-76
2022/06/01 01:59:55;;;;;;;6.73;4.67;;;;;;;;;;5027209;28;20291;-76
2022/06/01 02:02:26;;;;;;;9.20;5.47;;;;;;;;;;5027802;28;20212;-76
2022/06/01 02:07:45;;;;;;;10.50;5.73;;;;;;;;;;5027203;28;20190;-74
2022/06/01 02:12:58;;;;;;;10.83;5.03;;;;;;;;;;5022742;28;20281;-76
2022/06/01 02:15:29;;;;;;;7.60;5.13;;;;;;;;;;5025690;28;20698;-75
2022/06/01 02:17:58;;;;;;;8.33;5.63;;;;;;;;;;5026547;28;20204;-75
2022/06/01 02:20:28;;;;;;;10.43;5.60;;;;;;;;;;5026736;28;20666;-76
2022/06/01 02:22:55;;;;;;;10.50;5.60;;;;;;;;;;5025866;28;20571;-75
2022/06/01 02:25:23;;;;;;;8.17;5.33;;;;;;;;;;5021748;28;20228;-75
2022/06/01 02:27:51;;;;;;;7.13;4.97;;;;;;;;;;5022016;28;20204;-76
2022/06/01 02:30:20;;;;;;;9.60;5.63;;;;;;;;;;5023226;28;20663;-76
2022/06/01 02:32:49;;;;;;;10.17;6.00;;;;;;;;;;5019135;28;20214;-75
2022/06/01 02:35:18;;;;;;;8.83;5.30;;;;;;;;;;5019610;28;20234;-76
2022/06/01 02:37:47;;;;;;;9.43;6.37;;;;;;;;;;5022362;28;20299;-76
2022/06/01 02:40:18;;;;;;;9.23;5.90;;;;;;;;;;5019509;28;20701;-76
2022/06/01 02:42:45;;;;;;;12.93;6.47;;;;;;;;;;5023724;28;20476;-76
2022/06/01 02:45:12;;;;;;;8.43;5.87;;;;;;;;;;5022307;28;20219;-76
2022/06/01 02:47:41;;;;;;;14.07;5.97;;;;;;;;;;5020663;28;20306;-76
2022/06/01 02:50:12;;;;;;;10.97;6.37;;;;;;;;;;5021275;28;20199;-76
2022/06/01 02:52:40;;;;;;;13.17;7.20;;;;;;;;;;5020235;28;20212;-76
2022/06/01 02:55:08;;;;;;;14.63;6.70;;;;;;;;;;5022287;28;20231;-76
2022/06/01 02:57:36;;;;;;;10.47;6.60;;;;;;;;;;5023235;28;20200;-76
2022/06/01 03:00:04;;;;;;;9.53;5.87;;;;;;;;;;5021671;28;20356;-76
2022/06/01 03:02:31;;;;;;;11.57;6.33;;;;;;;;;;5019594;28;20204;-76
2022/06/01 03:04:58;;;;;;;11.70;6.20;;;;;;;;;;5017658;28;20227;-76
2022/06/01 03:07:27;;;;;;;8.93;6.27;;;;;;;;;;5022426;28;20213;-76
2022/06/01 03:09:54;;;;;;;8.17;5.53;;;;;;;;;;5023985;28;20750;-76
2022/06/01 03:12:22;;;;;;;9.63;6.27;;;;;;;;;;5026625;28;20303;-76
2022/06/01 03:14:49;;;;;;;12.57;6.30;;;;;;;;;;5026531;28;20263;-76
2022/06/01 03:17:16;;;;;;;8.63;6.27;;;;;;;;;;5022510;28;20229;-75
2022/06/01 03:19:43;;;;;;;10.10;5.57;;;;;;;;;;5024476;28;20207;-75
2022/06/01 03:22:10;;;;;;;9.60;6.07;;;;;;;;;;5019847;28;20223;-75
2022/06/01 03:24:39;;;;;;;11.33;6.47;;;;;;;;;;5022207;28;20225;-75
2022/06/01 03:27:07;;;;;;;8.47;5.47;;;;;;;;;;5023766;28;20780;-74
2022/06/01 03:29:34;;;;;;;10.27;6.03;;;;;;;;;;5021799;28;20673;-75
2022/06/01 03:32:01;;;;;;;10.53;5.63;;;;;;;;;;5022960;28;20295;-75
2022/06/01 03:34:30;;;;;;;11.77;6.30;;;;;;;;;;5016939;28;20227;-74
2022/06/01 03:36:57;;;;;;;7.07;5.37;;;;;;;;;;5023856;28;20645;-75
2022/06/01 03:39:24;;;;;;;7.97;5.40;;;;;;;;;;5023169;28;20545;-75
2022/06/01 03:41:53;;;;;;;8.63;6.17;;;;;;;;;;5026020;28;20235;-75
2022/06/01 03:47:05;;;;;;;10.37;6.03;;;;;;;;;;5025723;28;20678;-74
2022/06/01 03:49:33;;;;;;;12.33;5.83;;;;;;;;;;5021541;28;20211;-74
2022/06/01 03:52:00;;;;;;;9.47;6.07;;;;;;;;;;5025576;28;20647;-75
2022/06/01 03:54:27;;;;;;;11.83;5.73;;;;;;;;;;5026807;28;20242;-75
2022/06/01 03:56:56;;;;;;;12.07;5.97;;;;;;;;;;5025825;28;20238;-75
2022/06/01 03:59:23;;;;;;;7.47;5.10;;;;;;;;;;5024038;28;20204;-75
2022/06/01 04:01:50;;;;;;;9.67;5.63;;;;;;;;;;5026120;28;20201;-75
2022/06/01 04:04:17;;;;;;;8.37;5.90;;;;;;;;;;5025106;28;20227;-75
2022/06/01 04:06:44;;;;;;;11.33;6.33;;;;;;;;;;5026204;28;20777;-75
2022/06/01 04:09:11;;;;;;;9.53;6.13;;;;;;;;;;5028659;28;20219;-75
2022/06/01 04:11:38;;;;;;;12.13;5.70;;;;;;;;;;5026362;28;20210;-75
2022/06/01 04:14:07;;;;;;;8.97;5.30;;;;;;;;;;5024667;28;20223;-76
2022/06/01 04:16:34;;;;;;;8.53;5.23;;;;;;;;;;5021183;28;20227;-75
2022/06/01 04:19:01;;;;;;;7.70;5.20;;;;;;;;;;5022702;28;20200;-75
2022/06/01 04:21:29;;;;;;;10.53;5.33;;;;;;;;;;5022424;28;20204;-75
2022/06/01 04:23:59;;;;;;;10.63;5.40;;;;;;;;;;5024792;28;20234;-75
2022/06/01 04:26:26;;;;;;;6.87;5.00;;;;;;;;;;5021727;28;20695;-75
2022/06/01 04:28:54;;;;;;;8.50;5.00;;;;;;;;;;5023122;28;20670;-73
2022/06/01 04:31:23;;;;;;;8.13;5.40;;;;;;;;;;5022364;28;20650;-73
2022/06/01 04:33:50;;;;;;;7.53;5.13;;;;;;;;;;5024012;28;20227;-73
2022/06/01 04:45:28;;;;;;;7.43;4.83;;;;;;;;;;5025827;28;20688;-76
2022/06/01 04:47:57;;;;;;;6.07;4.13;;;;;;;;;;5022081;28;20199;-75
2022/06/01 04:50:24;;;;;;;5.90;3.90;;;;;;;;;;5021702;28;20207;-73
2022/06/01 04:52:51;;;;;;;7.20;3.90;;;;;;;;;;5025897;28;20229;-73
2022/06/01 04:55:18;;;;;;;7.10;3.80;;;;;;;;;;5021732;28;20283;-73
2022/06/01 04:57:45;;;;;;;7.40;3.37;;;;;;;;;;5022325;28;20266;-73
2022/06/01 05:00:13;;;;;;;7.30;4.00;;;;;;;;;;5021659;28;20764;-73
2022/06/01 05:02:40;;;;;;;7.00;3.83;;;;;;;;;;5023858;28;20265;-73
2022/06/01 05:05:09;;;;;;;8.50;3.93;;;;;;;;;;5027453;28;20266;-74
2022/06/01 05:07:39;;;;;;;4.93;3.50;;;;;;;;;;5024637;28;20204;-74
2022/06/01 05:10:06;;;;;;;5.27;3.20;;;;;;;;;;5023979;28;20236;-73
2022/06/01 05:12:34;;;;;;;6.90;3.90;;;;;;;;;;5021695;28;20214;-73
2022/06/01 05:15:01;;;;;;;4.87;3.23;;;;;;;;;;5022598;28;20228;-73
2022/06/01 05:17:28;;;;;;;6.63;3.63;;;;;;;;;;5020924;28;20573;-75
2022/06/01 05:19:55;;;;;;;7.23;3.20;;;;;;;;;;5022892;28;20269;-76
2022/06/01 05:22:24;;;;;;;4.47;3.27;;;;;;;;;;5021998;28;20285;-76
2022/06/01 05:24:51;;;;;;;4.20;3.20;;;;;;;;;;5022902;28;20224;-76
2022/06/01 05:27:18;;;;;;;5.33;3.20;;;;;;;;;;5020649;28;20210;-75
2022/06/01 05:29:45;;;;;;;4.93;3.20;;;;;;;;;;5026677;28;20227;-76
2022/06/01 05:32:13;;;;;;;5.77;3.40;;;;;;;;;;5025100;28;20210;-75
2022/06/01 05:34:40;;;;;;;5.37;3.07;;;;;;;;;;5020556;28;20310;-75
2022/06/01 05:37:07;;;;;;;4.27;2.83;;;;;;;;;;5020650;28;20227;-75
2022/06/01 05:39:36;;;;;;;4.30;2.80;;;;;;;;;;5024402;28;20299;-76
2022/06/01 05:42:03;;;;;;;6.23;3.00;;;;;;;;;;5019188;28;20211;-76
2022/06/01 05:44:30;;;;;;;4.40;3.10;;;;;;;;;;5025882;28;20229;-76
2022/06/01 05:46:58;;;;;;;8.03;3.23;;;;;;;;;;5024284;28;20200;-77
2022/06/01 05:49:26;;;;;;;5.40;2.97;;;;;;;;;;5019669;28;20207;-76
2022/06/01 05:51:53;;;;;;;3.93;2.70;;;;;;;;;;5020260;28;20857;-76
2022/06/01 05:54:20;;;;;;;4.93;2.90;;;;;;;;;;5022761;28;20387;-76
2022/06/01 05:56:49;;;;;;;5.30;2.60;;;;;;;;;;5023867;28;20225;-76
2022/06/01 05:59:16;;;;;;;4.23;2.87;;;;;;;;;;5023268;28;20964;-76
2022/06/01 06:01:44;;;;;;;3.40;2.70;;;;;;;;;;5025957;28;20204;-76
2022/06/01 06:04:11;;;;;;;3.17;2.30;;;;;;;;;;5023366;28;20930;-76
2022/06/01 06:06:38;;;;;;;7.47;2.67;;;;;;;;;;5024311;28;20282;-76
2022/06/01 06:09:07;;;;;;;6.00;2.90;;;;;;;;;;5022189;28;20271;-76
2022/06/01 06:11:35;;;;;;;5.13;3.07;;;;;;;;;;5024442;28;20734;-77
2022/06/01 06:14:04;;;;;;;8.93;2.73;;;;;;;;;;5024017;28;20288;-76
2022/06/01 06:16:32;;;;;;;3.63;2.60;;;;;;;;;;5022262;28;20231;-76
2022/06/01 06:19:00;;;;;;;4.07;2.93;;;;;;;;;;5021773;28;20231;-76
2022/06/01 06:21:28;;;;;;;3.87;2.13;;;;;;;;;;5019776;28;20221;-76
2022/06/01 06:23:59;;;;;;;4.40;2.50;;;;;;;;;;5021500;28;20245;-76
2022/06/01 06:26:26;;;;;;;5.77;2.27;;;;;;;;;;5024360;28;20293;-77
2022/06/01 06:28:53;;;;;;;5.13;2.30;;;;;;;;;;5023720;28;20224;-76
2022/06/01 06:31:22;;;;;;;4.30;2.43;;;;;;;;;;5020787;28;20218;-74
2022/06/01 06:33:49;;;;;;;4.73;2.60;;;;;;;;;;5020642;28;20253;-74
2022/06/01 06:36:16;;;;;;;3.40;2.30;;;;;;;;;;5023453;28;20265;-74
2022/06/01 06:38:43;;;;;;;3.40;2.10;;;;;;;;;;5023767;28;20204;-74
2022/06/01 06:41:11;;;;;;;4.50;2.70;;;;;;;;;;5021736;28;20648;-74
2022/06/01 06:43:39;;;;;;;7.73;2.83;;;;;;;;;;5021883;28;20740;-74
2022/06/01 06:46:07;;;;;;;4.43;2.87;;;;;;;;;;5021024;28;20202;-74
2022/06/01 06:48:36;;;;;;;4.53;2.60;;;;;;;;;;5022190;28;20372;-74
2022/06/01 06:51:03;;;;;;;7.73;2.97;;;;;;;;;;5023420;28;20203;-74
2022/06/01 06:53:30;;;;;;;3.97;2.80;;;;;;;;;;5020920;28;20322;-75
2022/06/01 06:55:58;;;;;;;5.03;3.50;;;;;;;;;;5024027;28;20255;-76
2022/06/01 06:58:25;;;;;;;10.57;3.90;;;;;;;;;;5022797;28;20204;-75
2022/06/01 07:00:53;;;;;;;6.60;3.37;;;;;;;;;;5024032;28;20201;-75
2022/06/01 07:03:20;;;;;;;4.50;3.20;;;;;;;;;;5022638;28;20670;-75
2022/06/01 07:08:33;;;;;;;5.17;2.80;;;;;;;;;;5023496;28;20594;-75
2022/06/01 07:11:01;;;;;;;7.50;3.03;;;;;;;;;;5021351;28;20366;-75
2022/06/01 07:13:28;;;;;;;4.43;2.97;;;;;;;;;;5022627;28;20219;-75
2022/06/01 07:16:06;;;;;;;5.20;3.30;;;;;;;;;;5027234;28;20536;-75
2022/06/01 07:18:34;;;;;;;5.60;2.90;;;;;;;;;;5030409;28;20210;-75
2022/06/01 07:21:02;;;;;;;5.20;2.87;;;;;;;;;;5028234;28;20211;-75
2022/06/01 07:23:30;;;;;;;7.03;2.97;;;;;;;;;;5029881;28;20248;-75
2022/06/01 07:25:57;;;;;;;5.47;3.00;;;;;;;;;;5030178;28;20706;-76
2022/06/01 07:28:24;;;;;;;6.77;3.20;;;;;;;;;;5028179;28;20211;-75
2022/06/01 07:30:56;;;;;;;5.90;2.73;;;;;;;;;;5031445;28;20669;-74
2022/06/01 07:33:23;;;;;;;6.47;2.67;;;;;;;;;;5032191;28;20696;-74
2022/06/01 07:35:51;;;;;;;5.77;2.80;;;;;;;;;;5029135;28;20231;-74
2022/06/01 07:43:50;;;;;;;6.23;2.67;;;;;;;;;;5031314;28;20290;-75
2022/06/01 07:46:17;;;;;;;7.57;2.53;;;;;;;;;;5028719;28;20203;-78
2022/06/01 07:48:46;;;;;;;7.00;3.00;;;;;;;;;;5030023;28;20807;-75
2022/06/01 07:51:14;;;;;;;6.90;2.60;;;;;;;;;;5029024;28;20227;-75
2022/06/01 07:53:42;;;;;;;9.07;2.80;;;;;;;;;;5026722;28;20238;-77
2022/06/01 07:56:10;;;;;;;7.63;3.30;;;;;;;;;;5030600;28;20304;-75
2022/06/01 07:58:37;;;;;;;4.23;2.90;;;;;;;;;;5029124;28;20207;-75
2022/06/01 08:01:04;;;;;;;5.83;2.90;;;;;;;;;;5029604;28;20696;-78
2022/06/01 08:03:32;;;;;;;4.20;3.00;;;;;;;;;;5030325;28;20306;-78
2022/06/01 08:05:59;;;;;;;6.73;2.60;;;;;;;;;;5029972;28;20330;-72
2022/06/01 08:08:26;;;;;;;4.37;2.60;;;;;;;;;;5027293;28;20298;-72
2022/06/01 08:10:54;;;;;;;6.00;2.60;;;;;;;;;;5032165;28;20543;-73
2022/06/01 08:13:21;;;;;;;8.03;3.10;;;;;;;;;;5028990;28;20216;-72
2022/06/01 08:15:49;;;;;;;4.53;2.80;;;;;;;;;;5032010;28;20211;-73
2022/06/01 08:18:17;;;;;;;6.70;2.73;;;;;;;;;;5028795;28;20242;-73
2022/06/01 08:20:44;;;;;;;4.37;2.73;;;;;;;;;;5031051;28;20289;-73
2022/06/01 08:23:12;;;;;;;8.23;2.70;;;;;;;;;;5028815;28;20333;-72
2022/06/01 08:25:40;;;;;;;6.53;2.60;;;;;;;;;;5028060;28;20616;-72
2022/06/01 08:28:10;;;;;;;5.37;3.07;;;;;;;;;;5028444;28;20231;-72
2022/06/01 08:30:38;;;;;;;6.20;3.00;;;;;;;;;;5028664;28;20207;-72
2022/06/01 08:33:06;;;;;;;5.30;2.67;;;;;;;;;;5025777;28;20306;-72
2022/06/01 08:35:34;;;;;;;5.67;2.67;;;;;;;;;;5025302;28;20219;-72
2022/06/01 08:38:02;;;;;;;5.60;3.10;;;;;;;;;;5028258;28;20769;-72
2022/06/01 08:40:31;;;;;;;6.13;2.50;;;;;;;;;;5030006;28;20764;-73
2022/06/01 08:43:01;;;;;;;4.33;2.50;;;;;;;;;;5028085;28;20660;-72
2022/06/01 08:45:30;;;;;;;2.67;2.03;;;;;;;;;;5026457;28;20231;-72
2022/06/01 08:47:57;;;;;;;8.60;2.27;;;;;;;;;;5028220;28;20662;-72
2022/06/01 08:50:27;;;;;;;4.87;2.20;;;;;;;;;;5026585;28;20212;-73
2022/06/01 08:52:55;;;;;;;4.83;2.43;;;;;;;;;;5025527;28;20239;-72
2022/06/01 08:55:22;;;;;;;5.00;2.40;;;;;;;;;;5028223;28;20324;-72
2022/06/01 08:57:53;;;;;;;3.70;2.10;;;;;;;;;;5026044;28;20633;-72
2022/06/01 09:00:22;;;;;;;4.30;2.40;;;;;;;;;;5026946;28;20222;-72
2022/06/01 09:02:55;;;;;;;4.83;1.80;;;;;;;;;;5027804;28;20287;-72
2022/06/01 09:05:25;;;;;;;5.63;2.10;;;;;;;;;;5027473;28;20314;-73
2022/06/01 09:07:54;;;;;;;4.90;2.50;;;;;;;;;;5026414;28;20204;-72
2022/06/01 09:10:40;;;;;;;4.47;2.33;;;;;;;;;;5023846;28;20258;-72
2022/06/01 09:13:09;;;;;;;4.63;2.50;;;;;;;;;;5026566;28;20222;-72
2022/06/01 09:15:41;;;;;;;6.37;2.70;;;;;;;;;;5023437;28;20207;-72
2022/06/01 09:18:10;;;;;;;5.60;2.30;;;;;;;;;;5024406;28;20608;-73
2022/06/01 09:23:23;;;;;;;4.27;2.40;;;;;;;;;;5025903;28;20208;-72
2022/06/01 09:25:51;;;;;;;6.00;2.57;;;;;;;;;;5025041;28;20231;-72
2022/06/01 09:28:20;;;;;;;6.73;2.00;;;;;;;;;;5020822;28;20616;-72
2022/06/01 09:30:51;;;;;;;3.47;1.97;;;;;;;;;;5026027;28;20215;-72
2022/06/01 09:33:24;;;;;;;3.93;1.80;;;;;;;;;;5024641;28;20301;-72
2022/06/01 09:35:59;;;;;;;3.87;1.60;;;;;;;;;;5025416;28;20203;-72
2022/06/01 09:38:36;;;;;;;2.43;1.70;;;;;;;;;;5025586;28;20669;-72
2022/06/01 09:41:05;;;;;;;3.90;1.70;;;;;;;;;;5025214;28;20761;-72
2022/06/01 09:43:32;;;;;;;3.93;1.73;;;;;;;;;;5025103;28;20232;-72
2022/06/01 09:45:59;;;;;;;5.83;1.97;;;;;;;;;;5025350;28;20207;-72
2022/06/01 09:48:30;;;;;;;3.47;1.70;;;;;;;;;;5027451;28;20505;-72
2022/06/01 09:51:02;;;;;;;2.90;1.40;;;;;;;;;;5025030;28;20704;-72
2022/06/01 09:53:33;;;;;;;2.67;1.60;;;;;;;;;;5023226;28;20302;-72
2022/06/01 09:56:01;;;;;;;3.80;1.77;;;;;;;;;;5023234;28;20274;-72
2022/06/01 10:06:51;;;;;;;3.37;1.33;;;;;;;;;;5024680;28;20202;-73
2022/06/01 10:09:21;;;;;;;5.60;1.43;;;;;;;;;;5021933;28;20200;-73
2022/06/01 10:11:51;;;;;;;3.40;1.40;;;;;;;;;;5027803;28;20243;-73
2022/06/01 10:14:20;;;;;;;3.03;1.30;;;;;;;;;;5026699;28;20238;-73
2022/06/01 10:17:01;;;;;;;3.27;1.33;;;;;;;;;;5026124;28;20204;-72
2022/06/01 10:19:32;;;;;;;7.50;2.10;;;;;;;;;;5024650;28;20230;-72
2022/06/01 10:22:02;;;;;;;3.13;1.20;;;;;;;;;;5024545;28;20286;-72
2022/06/01 10:24:33;;;;;;;2.20;1.27;;;;;;;;;;5025060;28;20224;-72
2022/06/01 10:27:00;;;;;;;2.63;1.10;;;;;;;;;;5024988;28;20195;-72
2022/06/01 10:29:31;;;;;;;4.10;1.13;;;;;;;;;;5024084;28;20734;-73
2022/06/01 10:32:00;;;;;;;4.10;0.90;;;;;;;;;;5023700;28;20211;-74
2022/06/01 10:34:31;;;;;;;4.17;1.40;;;;;;;;;;5024540;28;20301;-74
2022/06/01 10:37:01;;;;;;;3.83;1.03;;;;;;;;;;5023958;28;20204;-73
2022/06/01 10:39:32;;;;;;;2.93;1.00;;;;;;;;;;5024900;28;20242;-74
2022/06/01 10:42:05;;;;;;;3.83;1.00;;;;;;;;;;5022890;28;20322;-74
2022/06/01 10:44:36;;;;;;;2.00;1.00;;;;;;;;;;5023567;28;20319;-73
2022/06/01 10:47:05;;;;;;;2.03;1.00;;;;;;;;;;5023659;28;20298;-74
2022/06/01 10:49:38;;;;;;;2.63;0.90;;;;;;;;;;5021340;28;20200;-74
2022/06/01 10:52:10;;;;;;;1.97;0.90;;;;;;;;;;5025305;28;20289;-74
2022/06/01 10:54:40;;;;;;;4.40;1.13;;;;;;;;;;5021169;28;20322;-74
2022/06/01 10:57:10;;;;;;;4.47;1.07;;;;;;;;;;5015424;28;20201;-74
2022/06/01 10:59:37;;;;;;;4.83;1.10;;;;;;;;;;5023551;28;20200;-74
2022/06/01 11:02:12;;;;;;;3.63;1.00;;;;;;;;;;5023364;28;20219;-74
2022/06/01 11:04:48;;;;;;;1.93;1.10;;;;;;;;;;5021749;28;20250;-74
2022/06/01 11:07:26;;;;;;;2.17;1.00;;;;;;;;;;5019291;28;20282;-74
2022/06/01 11:10:00;;;;;;;2.33;1.13;;;;;;;;;;5018068;28;20206;-74
2022/06/01 11:12:31;;;;;;;3.60;1.37;;;;;;;;;;5022816;28;20205;-74
2022/06/01 11:15:04;;;;;;;1.10;0.80;;;;;;;;;;5018782;28;20238;-74
2022/06/01 11:17:35;;;;;;;4.07;1.30;;;;;;;;;;5020806;28;20246;-74
2022/06/01 11:20:06;;;;;;;1.70;0.90;;;;;;;;;;5020729;28;20631;-73
2022/06/01 11:22:45;;;;;;;2.30;1.20;;;;;;;;;;5023217;28;20757;-74
2022/06/01 11:25:19;;;;;;;3.90;1.17;;;;;;;;;;5022336;28;20219;-74
2022/06/01 11:27:51;;;;;;;4.83;1.10;;;;;;;;;;5024392;28;20238;-73
2022/06/01 11:30:20;;;;;;;1.30;0.93;;;;;;;;;;5024527;28;20227;-74
2022/06/01 11:32:52;;;;;;;2.07;0.97;;;;;;;;;;5025397;28;20291;-74
2022/06/01 11:35:21;;;;;;;2.93;0.83;;;;;;;;;;5020864;28;20231;-74
2022/06/01 11:37:53;;;;;;;5.37;1.17;;;;;;;;;;5023946;28;20318;-73
2022/06/01 11:40:40;;;;;;;2.77;0.90;;;;;;;;;;5025419;28;20212;-73
2022/06/01 11:43:10;;;;;;;2.90;1.27;;;;;;;;;;5020626;28;20209;-73
2022/06/01 11:45:41;;;;;;;2.13;1.00;;;;;;;;;;5023584;28;20479;-74
2022/06/01 11:48:09;;;;;;;6.07;1.37;;;;;;;;;;5023268;28;20206;-73
2022/06/01 11:50:48;;;;;;;1.80;1.00;;;;;;;;;;5024871;28;20298;-73
2022/06/01 11:53:22;;;;;;;3.10;0.90;;;;;;;;;;5023399;28;20216;-74
2022/06/01 11:55:50;;;;;;;3.13;0.97;;;;;;;;;;5023990;28;20216;-73
2022/06/01 11:58:22;;;;;;;4.63;1.37;;;;;;;;;;5023431;28;20224;-74
2022/06/01 12:00:57;;;;;;;3.97;1.00;;;;;;;;;;5026274;28;20211;-73
2022/06/01 12:03:41;;;;;;;0.80;0.70;;;;;;;;;;5024914;28;20211;-73
2022/06/01 12:06:11;;;;;;;2.07;1.00;;;;;;;;;;5025375;28;20204;-74
2022/06/01 12:08:43;;;;;;;4.10;0.93;;;;;;;;;;5029785;28;20203;-73
2022/06/01 12:11:13;;;;;;;1.50;0.90;;;;;;;;;;5026566;28;20199;-74
2022/06/01 12:13:55;;;;;;;1.20;0.77;;;;;;;;;;5030686;28;20238;-74
2022/06/01 12:16:23;;;;;;;2.67;0.80;;;;;;;;;;5026602;28;20348;-73
2022/06/01 12:19:09;;;;;;;1.47;0.90;;;;;;;;;;5028120;28;20256;-74
2022/06/01 12:21:38;;;;;;;2.20;0.80;;;;;;;;;;5028410;28;20215;-75
2022/06/01 12:30:11;;;;;;;4.50;0.90;;;;;;;;;;4945547;28;20278;-75
2022/06/01 12:32:57;;;;;;;3.07;0.87;;;;;;;;;;5019932;28;20204;-75
2022/06/01 12:35:25;;;;;;;1.13;0.70;;;;;;;;;;5026111;28;20227;-76
2022/06/01 12:37:53;;;;;;;5.30;0.83;;;;;;;;;;5027441;28;20318;-76
2022/06/01 12:40:22;;;;;;;2.73;0.90;;;;;;;;;;5026218;28;20215;-76
2022/06/01 12:42:56;;;;;;;4.50;0.70;;;;;;;;;;5027462;28;20253;-76
2022/06/01 12:45:25;;;;;;;1.13;0.70;;;;;;;;;;5027588;28;20282;-76
2022/06/01 12:47:59;;;;;;;1.10;0.70;;;;;;;;;;5028402;28;20208;-76
2022/06/01 12:50:28;;;;;;;2.10;0.80;;;;;;;;;;5024052;28;20611;-77
2022/06/01 12:53:12;;;;;;;0.80;0.70;;;;;;;;;;5027907;28;20305;-77
2022/06/01 12:55:41;;;;;;;2.23;0.80;;;;;;;;;;5027535;28;20214;-75
2022/06/01 12:58:17;;;;;;;2.53;0.70;;;;;;;;;;5025831;28;20223;-75
2022/06/01 13:00:48;;;;;;;2.97;0.70;;;;;;;;;;5027715;28;20214;-75
2022/06/01 13:03:16;;;;;;;4.47;0.90;;;;;;;;;;5027216;28;20204;-75
2022/06/01 13:05:46;;;;;;;2.50;0.80;;;;;;;;;;5027505;28;20212;-75
2022/06/01 13:08:17;;;;;;;3.53;0.90;;;;;;;;;;5021029;28;20216;-75
2022/06/01 13:10:46;;;;;;;1.53;0.70;;;;;;;;;;5025155;28;20199;-75
2022/06/01 13:13:14;;;;;;;2.30;0.90;;;;;;;;;;5024363;28;20231;-75
2022/06/01 13:15:43;;;;;;;1.77;0.70;;;;;;;;;;5027446;28;20223;-75
2022/06/01 13:18:13;;;;;;;0.73;0.50;;;;;;;;;;5026729;28;20577;-75
2022/06/01 13:20:42;;;;;;;7.93;0.93;;;;;;;;;;5021247;28;20208;-75
2022/06/01 13:23:16;;;;;;;0.93;0.60;;;;;;;;;;5025221;28;20207;-72
2022/06/01 13:25:43;;;;;;;1.93;0.70;;;;;;;;;;5024468;28;20559;-73
2022/06/01 13:28:13;;;;;;;1.03;0.60;;;;;;;;;;5023765;28;20776;-72
2022/06/01 13:30:40;;;;;;;1.27;0.50;;;;;;;;;;5024338;28;20742;-74
2022/06/01 13:33:17;;;;;;;1.37;0.43;;;;;;;;;;5027329;28;20204;-74
2022/06/01 13:35:45;;;;;;;2.50;0.70;;;;;;;;;;5024643;28;20215;-75
2022/06/01 13:38:17;;;;;;;2.83;0.70;;;;;;;;;;5025972;28;20252;-75
2022/06/01 13:40:48;;;;;;;1.73;0.70;;;;;;;;;;5025375;28;20208;-75
2022/06/01 13:43:18;;;;;;;0.90;0.60;;;;;;;;;;5022482;28;20696;-74
2022/06/01 13:45:50;;;;;;;5.60;0.80;;;;;;;;;;5026410;28;20204;-74
2022/06/01 13:48:19;;;;;;;1.10;0.70;;;;;;;;;;5019349;28;20205;-74
2022/06/01 13:50:53;;;;;;;0.90;0.70;;;;;;;;;;5022901;28;20207;-75
2022/06/01 13:53:22;;;;;;;3.33;0.70;;;;;;;;;;5024467;28;20212;-74
2022/06/01 13:55:57;;;;;;;2.23;0.50;;;;;;;;;;5023218;28;20730;-74
2022/06/01 13:58:31;;;;;;;1.10;0.53;;;;;;;;;;5022872;28;20223;-73
2022/06/01 14:01:07;;;;;;;1.37;0.50;;;;;;;;;;5021962;28;20237;-72
2022/06/01 14:03:35;;;;;;;1.63;0.70;;;;;;;;;;5021910;28;20226;-72
2022/06/01 14:06:07;;;;;;;1.33;0.80;;;;;;;;;;5018076;28;20218;-73
2022/06/01 14:08:35;;;;;;;3.33;0.70;;;;;;;;;;5024092;28;20200;-73
2022/06/01 14:11:03;;;;;;;2.40;0.83;;;;;;;;;;5024717;28;20231;-73
2022/06/01 14:13:36;;;;;;;1.67;0.73;;;;;;;;;;5021871;28;20231;-73
2022/06/01 14:16:03;;;;;;;1.77;0.70;;;;;;;;;;5023704;28;20299;-73
2022/06/01 14:18:33;;;;;;;1.97;0.80;;;;;;;;;;5024094;28;20225;-73
2022/06/01 14:21:00;;;;;;;1.13;0.60;;;;;;;;;;5023993;28;20713;-73
2022/06/01 14:23:28;;;;;;;2.03;0.70;;;;;;;;;;5025412;28;20238;-73
2022/06/01 14:28:42;;;;;;;5.37;0.90;;;;;;;;;;5024801;28;20219;-73
2022/06/01 14:31:10;;;;;;;1.73;0.70;;;;;;;;;;5024178;28;20218;-73
2022/06/01 14:33:38;;;;;;;2.43;0.80;;;;;;;;;;5021205;28;20227;-74
2022/06/01 14:36:06;;;;;;;3.50;0.93;;;;;;;;;;5018138;28;20215;-73
2022/06/01 14:38:33;;;;;;;3.93;0.93;;;;;;;;;;5022509;28;20219;-72
2022/06/01 14:41:02;;;;;;;3.23;0.70;;;;;;;;;;5023679;28;20203;-73
2022/06/01 14:43:30;;;;;;;0.73;0.60;;;;;;;;;;5024375;28;20267;-73
2022/06/01 14:45:59;;;;;;;3.23;0.87;;;;;;;;;;5025104;28;20211;-73
2022/06/01 14:48:26;;;;;;;4.67;0.60;;;;;;;;;;5023510;28;20257;-73
2022/06/01 14:50:53;;;;;;;1.13;0.70;;;;;;;;;;5023570;28;20741;-74
2022/06/01 14:53:23;;;;;;;2.10;0.70;;;;;;;;;;5022853;28;20208;-74
2022/06/01 14:55:50;;;;;;;0.50;0.50;;;;;;;;;;5023292;28;20287;-73
2022/06/01 14:58:18;;;;;;;1.47;0.70;;;;;;;;;;5020974;28;20670;-74
2022/06/01 15:00:46;;;;;;;0.77;0.63;;;;;;;;;;5023645;28;20652;-74
2022/06/01 15:03:15;;;;;;;1.60;0.70;;;;;;;;;;5024517;28;20278;-73
2022/06/01 15:05:42;;;;;;;3.83;0.70;;;;;;;;;;5023938;28;20250;-73
2022/06/01 15:08:10;;;;;;;1.07;0.67;;;;;;;;;;5023189;28;20290;-73
2022/06/01 15:10:38;;;;;;;2.23;0.70;;;;;;;;;;5023254;28;20613;-74
2022/06/01 15:13:06;;;;;;;16.03;1.50;;;;;;;;;;5022544;28;20203;-73
2022/06/01 15:15:33;;;;;;;1.73;0.60;;;;;;;;;;5023269;28;20418;-73
2022/06/01 15:18:00;;;;;;;3.27;1.00;;;;;;;;;;5023412;28;20307;-75
2022/06/01 15:20:29;;;;;;;2.47;1.07;;;;;;;;;;5024076;28;20318;-75
2022/06/01 15:22:56;;;;;;;2.27;0.80;;;;;;;;;;5022826;28;20334;-74
2022/06/01 15:25:24;;;;;;;1.50;0.80;;;;;;;;;;5022610;28;20231;-74
2022/06/01 15:27:51;;;;;;;2.60;0.90;;;;;;;;;;5011837;28;20208;-74
2022/06/01 15:41:21;;;;;;;3.63;0.80;;;;;;;;;;5029552;28;20242;-74
2022/06/01 15:43:49;;;;;;;2.23;0.70;;;;;;;;;;5025808;28;20223;-75
2022/06/01 15:46:18;;;;;;;2.20;0.70;;;;;;;;;;5020310;28;20204;-75
2022/06/01 15:48:45;;;;;;;2.83;0.60;;;;;;;;;;5026331;28;20287;-74